createdAt,value
2018-09-05T00:01:58.432Z,27.53
2018-09-05T00:04:26.927Z,22.23
2018-09-05T00:06:55.838Z,24.37
2018-09-05T00:09:24.535Z,25.70
2018-09-05T00:11:53.272Z,24.53
2018-09-05T00:14:21.882Z,23.17
2018-09-05T00:16:50.346Z,28.07
2018-09-05T00:19:18.864Z,25.97
2018-09-05T00:21:47.474Z,24.13
2018-09-05T00:24:16.173Z,25.20
2018-09-05T00:26:44.656Z,28.10
2018-09-05T00:29:13.188Z,24.73
2018-09-05T00:31:41.803Z,26.97
2018-09-05T00:34:10.401Z,27.80
2018-09-05T00:36:38.981Z,24.90
2018-09-05T00:39:08.924Z,25.77
2018-09-05T00:41:37.666Z,22.70
2018-09-05T00:44:06.592Z,24.13
2018-09-05T00:46:35.572Z,23.03
2018-09-05T00:49:04.055Z,24.47
2018-09-05T00:51:32.623Z,22.13
2018-09-05T00:54:01.489Z,23.77
2018-09-05T00:56:30.305Z,22.87
2018-09-05T00:58:59.230Z,24.00
2018-09-05T01:01:28.477Z,23.13
2018-09-05T01:03:56.973Z,22.23
2018-09-05T01:06:25.789Z,20.37
2018-09-05T01:08:54.295Z,22.07
2018-09-05T01:11:23.021Z,22.77
2018-09-05T01:13:51.639Z,22.07
2018-09-05T01:16:20.450Z,23.00
2018-09-05T01:18:49.228Z,24.00
2018-09-05T01:21:17.738Z,25.40
2018-09-05T01:23:46.327Z,26.67
2018-09-05T01:26:14.971Z,24.70
2018-09-05T01:28:43.736Z,25.67
2018-09-05T01:31:12.264Z,25.13
2018-09-05T01:33:40.949Z,26.20
2018-09-05T01:36:15.385Z,22.70
2018-09-05T01:38:44.703Z,26.03
2018-09-05T01:41:14.755Z,21.07
2018-09-05T01:43:44.056Z,23.23
2018-09-05T01:46:12.548Z,25.37
2018-09-05T01:48:41.153Z,23.47
2018-09-05T01:51:09.719Z,24.97
2018-09-05T01:53:38.223Z,26.03
2018-09-05T01:56:06.882Z,26.43
2018-09-05T01:58:35.500Z,29.77
2018-09-05T02:01:04.124Z,25.77
2018-09-05T02:03:32.664Z,26.07
2018-09-05T02:06:01.304Z,26.97
2018-09-05T02:08:29.839Z,24.53
2018-09-05T02:10:58.332Z,28.20
2018-09-05T02:13:26.912Z,30.97
2018-09-05T02:15:55.404Z,25.43
2018-09-05T02:18:23.907Z,22.73
2018-09-05T02:20:52.754Z,23.00
2018-09-05T02:23:21.272Z,23.57
2018-09-05T02:25:49.891Z,21.83
2018-09-05T02:28:18.809Z,20.33
2018-09-05T02:30:47.370Z,25.20
2018-09-05T02:33:15.966Z,24.73
2018-09-05T02:35:44.616Z,21.23
2018-09-05T02:38:13.183Z,21.33
2018-09-05T02:40:41.843Z,20.20
2018-09-05T02:43:10.360Z,25.63
2018-09-05T02:45:39.014Z,21.97
2018-09-05T02:48:07.802Z,24.50
2018-09-05T02:50:36.432Z,21.97
2018-09-05T02:53:05.244Z,23.07
2018-09-05T02:55:39.000Z,32.60
2018-09-05T02:58:07.635Z,33.40
2018-09-05T03:00:36.249Z,30.93
2018-09-05T03:03:05.203Z,35.20
2018-09-05T03:05:33.754Z,36.87
2018-09-05T03:08:02.224Z,33.20
2018-09-05T03:10:30.734Z,30.80
2018-09-05T03:12:59.248Z,28.83
2018-09-05T03:15:28.152Z,28.83
2018-09-05T03:17:56.700Z,30.60
2018-09-05T03:20:25.324Z,27.30
2018-09-05T03:22:53.951Z,27.90
2018-09-05T03:25:22.556Z,27.07
2018-09-05T03:27:51.363Z,24.83
2018-09-05T03:30:20.117Z,24.33
2018-09-05T03:32:48.887Z,23.90
2018-09-05T03:35:17.812Z,28.40
2018-09-05T03:37:46.503Z,29.80
2018-09-05T03:40:15.040Z,27.30
2018-09-05T03:42:43.530Z,28.30
2018-09-05T03:45:12.087Z,24.80
2018-09-05T03:47:40.727Z,28.10
2018-09-05T03:50:09.751Z,24.27
2018-09-05T03:52:38.402Z,23.60
2018-09-05T03:55:06.966Z,24.30
2018-09-05T03:57:35.570Z,23.63
2018-09-05T04:00:05.091Z,23.07
2018-09-05T04:02:33.916Z,25.10
2018-09-05T04:05:02.787Z,23.80
2018-09-05T04:07:31.532Z,24.67
2018-09-05T04:10:00.272Z,22.37
2018-09-05T04:12:29.145Z,22.73
2018-09-05T04:14:57.891Z,25.63
2018-09-05T04:17:26.702Z,22.67
2018-09-05T04:19:55.411Z,22.00
2018-09-05T04:22:24.141Z,29.73
2018-09-05T04:24:52.794Z,24.33
2018-09-05T04:27:21.300Z,22.93
2018-09-05T04:29:50.231Z,22.47
2018-09-05T04:32:18.830Z,23.43
2018-09-05T04:34:47.503Z,27.77
2018-09-05T04:37:16.326Z,27.87
2018-09-05T04:39:44.908Z,25.27
2018-09-05T04:42:13.448Z,21.87
2018-09-05T04:44:42.463Z,25.37
2018-09-05T04:47:11.172Z,21.90
2018-09-05T04:49:39.731Z,23.07
2018-09-05T04:52:08.436Z,22.90
2018-09-05T04:54:37.035Z,25.33
2018-09-05T04:57:05.806Z,24.40
2018-09-05T04:59:34.749Z,25.03
2018-09-05T05:02:03.319Z,21.07
2018-09-05T05:04:31.923Z,25.77
2018-09-05T05:07:00.376Z,23.77
2018-09-05T05:09:28.892Z,21.67
2018-09-05T05:11:57.563Z,26.63
2018-09-05T05:14:26.544Z,22.90
2018-09-05T05:16:55.068Z,22.53
2018-09-05T05:19:23.620Z,24.03
2018-09-05T05:21:52.273Z,21.07
2018-09-05T05:24:20.812Z,19.97
2018-09-05T05:27:25.833Z,20.20
2018-09-05T05:29:54.359Z,22.73
2018-09-05T05:32:23.053Z,21.37
2018-09-05T05:34:51.934Z,21.77
2018-09-05T05:37:20.609Z,19.93
2018-09-05T05:39:49.213Z,22.97
2018-09-05T05:42:17.984Z,20.10
2018-09-05T05:44:46.652Z,20.23
2018-09-05T05:47:15.412Z,19.73
2018-09-05T05:49:43.944Z,21.27
2018-09-05T05:52:12.485Z,20.30
2018-09-05T05:54:41.029Z,23.37
2018-09-05T05:57:09.557Z,20.73
2018-09-05T05:59:38.068Z,19.70
2018-09-05T06:02:06.654Z,18.60
2018-09-05T06:04:35.159Z,21.87
2018-09-05T06:07:03.828Z,20.57
2018-09-05T06:09:32.347Z,17.63
2018-09-05T06:12:01.023Z,18.07
2018-09-05T06:14:29.675Z,19.80
2018-09-05T06:16:58.948Z,18.93
2018-09-05T06:19:27.596Z,16.37
2018-09-05T06:21:56.283Z,20.70
2018-09-05T06:24:25.119Z,19.03
2018-09-05T06:26:53.692Z,20.00
2018-09-05T06:29:22.299Z,19.43
2018-09-05T06:31:51.154Z,18.83
2018-09-05T06:34:19.894Z,19.23
2018-09-05T06:36:48.612Z,19.13
2018-09-05T06:39:17.140Z,17.47
2018-09-05T06:41:45.673Z,21.10
2018-09-05T06:44:14.430Z,17.93
2018-09-05T06:46:43.082Z,23.17
2018-09-05T06:49:11.767Z,16.83
2018-09-05T06:51:40.280Z,19.53
2018-09-05T06:54:09.131Z,21.60
2018-09-05T06:56:37.767Z,18.20
2018-09-05T06:59:06.503Z,19.73
2018-09-05T07:01:35.048Z,18.90
2018-09-05T07:04:03.743Z,17.87
2018-09-05T07:06:32.480Z,16.37
2018-09-05T07:09:01.069Z,19.67
2018-09-05T07:11:29.943Z,20.90
2018-09-05T07:13:58.524Z,15.70
2018-09-05T07:16:27.019Z,16.10
2018-09-05T07:18:55.683Z,16.47
2018-09-05T07:21:24.535Z,17.53
2018-09-05T07:23:52.945Z,16.90
2018-09-05T07:26:21.748Z,16.03
2018-09-05T07:28:50.316Z,17.10
2018-09-05T07:31:18.847Z,18.10
2018-09-05T07:33:47.519Z,16.03
2018-09-05T07:36:16.057Z,16.93
2018-09-05T07:38:44.742Z,13.77
2018-09-05T07:41:13.413Z,15.77
2018-09-05T07:43:42.100Z,15.77
2018-09-05T07:46:11.000Z,15.67
2018-09-05T07:48:39.778Z,16.80
2018-09-05T07:51:08.828Z,16.00
2018-09-05T07:53:37.299Z,17.57
2018-09-05T07:56:06.091Z,13.90
2018-09-05T07:58:34.973Z,17.73
2018-09-05T08:01:03.705Z,14.23
2018-09-05T08:03:32.282Z,14.67
2018-09-05T08:06:00.884Z,13.37
2018-09-05T08:08:29.393Z,13.63
2018-09-05T08:10:58.256Z,16.07
2018-09-05T08:13:26.751Z,11.73
2018-09-05T08:15:55.369Z,13.77
2018-09-05T08:18:24.228Z,15.57
2018-09-05T08:20:53.006Z,12.13
2018-09-05T08:23:21.793Z,11.70
2018-09-05T08:25:50.614Z,12.97
2018-09-05T08:28:19.408Z,12.70
2018-09-05T08:30:48.436Z,11.87
2018-09-05T08:33:17.200Z,12.60
2018-09-05T08:35:46.040Z,14.17
2018-09-05T08:38:14.650Z,11.20
2018-09-05T08:40:43.658Z,11.47
2018-09-05T08:43:12.220Z,10.93
2018-09-05T08:45:41.219Z,10.73
2018-09-05T08:48:09.544Z,13.83
2018-09-05T08:50:38.363Z,12.07
2018-09-05T08:53:06.878Z,22.57
2018-09-05T08:55:35.408Z,10.30
2018-09-05T08:58:04.200Z,10.20
2018-09-05T09:00:32.719Z,13.77
2018-09-05T09:03:01.310Z,13.60
2018-09-05T09:05:29.987Z,11.67
2018-09-05T09:07:58.701Z,13.57
2018-09-05T09:10:27.311Z,11.73
2018-09-05T09:12:55.995Z,11.90
2018-09-05T09:15:25.088Z,13.33
2018-09-05T09:17:54.265Z,12.07
2018-09-05T09:20:22.993Z,9.53
2018-09-05T09:22:51.793Z,10.00
2018-09-05T09:25:20.513Z,12.53
2018-09-05T09:27:49.425Z,11.33
2018-09-05T09:30:18.012Z,8.93
2018-09-05T09:32:46.785Z,14.18
2018-09-05T09:35:20.319Z,12.15
2018-09-05T09:37:48.992Z,9.93
2018-09-05T09:40:18.036Z,9.65
2018-09-05T09:42:46.830Z,8.68
2018-09-05T09:45:15.554Z,11.33
2018-09-05T09:47:44.095Z,9.83
2018-09-05T09:50:12.985Z,20.32
2018-09-05T09:52:41.884Z,39.63
2018-09-05T09:55:10.589Z,7.97
2018-09-05T09:57:39.184Z,8.90
2018-09-05T10:00:08.544Z,8.18
2018-09-05T10:02:42.435Z,6.97
2018-09-05T10:05:16.396Z,10.53
2018-09-05T10:07:50.245Z,8.88
2018-09-05T10:10:24.190Z,11.38
2018-09-05T10:12:57.073Z,7.53
2018-09-05T10:15:31.245Z,20.00
2018-09-05T10:18:05.391Z,29.18
2018-09-05T10:20:33.953Z,12.15
2018-09-05T10:23:02.791Z,18.30
2018-09-05T10:25:31.507Z,11.60
2018-09-05T10:28:00.294Z,7.87
2018-09-05T10:30:29.092Z,8.80
2018-09-05T10:32:57.713Z,8.65
2018-09-05T10:35:26.607Z,6.95
2018-09-05T10:37:55.377Z,6.72
2018-09-05T10:40:24.376Z,10.28
2018-09-05T10:42:53.014Z,5.97
2018-09-05T10:45:21.531Z,6.22
2018-09-05T10:47:50.440Z,6.33
2018-09-05T10:50:18.955Z,6.40
2018-09-05T10:52:47.683Z,6.60
2018-09-05T10:55:16.211Z,7.42
2018-09-05T10:57:44.770Z,6.65
2018-09-05T11:00:13.357Z,6.30
2018-09-05T11:02:42.060Z,6.80
2018-09-05T11:05:10.753Z,6.55
2018-09-05T11:07:39.291Z,8.98
2018-09-05T11:10:07.936Z,6.05
2018-09-05T11:12:36.803Z,7.50
2018-09-05T11:15:05.386Z,8.18
2018-09-05T11:17:34.047Z,7.03
2018-09-05T11:20:02.823Z,10.65
2018-09-05T11:22:31.765Z,7.08
2018-09-05T11:25:00.688Z,8.15
2018-09-05T11:27:29.599Z,6.83
2018-09-05T11:29:58.279Z,12.63
2018-09-05T11:32:26.795Z,11.30
2018-09-05T11:34:55.308Z,8.48
2018-09-05T11:37:23.876Z,8.28
2018-09-05T11:39:52.578Z,6.75
2018-09-05T11:42:21.455Z,7.35
2018-09-05T11:44:50.210Z,7.17
2018-09-05T11:47:19.123Z,11.15
2018-09-05T11:49:47.688Z,7.85
2018-09-05T11:52:16.272Z,7.15
2018-09-05T11:54:44.853Z,7.85
2018-09-05T11:57:13.980Z,9.65
2018-09-05T11:59:43.065Z,7.83
2018-09-05T12:02:12.086Z,7.50
2018-09-05T12:04:41.363Z,6.22
2018-09-05T12:07:10.532Z,7.85
2018-09-05T12:09:39.184Z,7.80
2018-09-05T12:12:07.798Z,8.75
2018-09-05T12:14:36.560Z,6.50
2018-09-05T12:17:05.258Z,8.48
2018-09-05T12:19:34.084Z,6.45
2018-09-05T12:22:03.009Z,6.85
2018-09-05T12:24:31.938Z,8.35
2018-09-05T12:27:00.815Z,7.08
2018-09-05T12:29:31.413Z,6.33
2018-09-05T12:32:00.283Z,8.13
2018-09-05T12:34:29.017Z,6.20
2018-09-05T12:36:57.627Z,7.25
2018-09-05T12:39:26.281Z,5.75
2018-09-05T12:41:54.905Z,6.17
2018-09-05T12:44:23.749Z,8.55
2018-09-05T12:46:52.281Z,8.28
2018-09-05T12:49:21.541Z,6.37
2018-09-05T12:51:50.409Z,7.12
2018-09-05T12:54:19.348Z,6.60
2018-09-05T12:56:47.944Z,7.45
2018-09-05T12:59:16.834Z,6.80
2018-09-05T13:01:45.945Z,7.80
2018-09-05T13:04:15.032Z,6.15
2018-09-05T13:06:43.959Z,6.28
2018-09-05T13:09:14.003Z,5.90
2018-09-05T13:11:43.305Z,6.75
2018-09-05T13:14:13.314Z,6.08
2018-09-05T13:16:42.273Z,8.38
2018-09-05T13:19:11.115Z,6.30
2018-09-05T13:21:39.767Z,6.47
2018-09-05T13:24:08.953Z,6.35
2018-09-05T13:26:37.816Z,8.13
2018-09-05T13:29:06.335Z,5.72
2018-09-05T13:31:35.054Z,6.15
2018-09-05T13:34:03.950Z,5.87
2018-09-05T13:36:32.856Z,7.55
2018-09-05T13:39:01.986Z,5.70
2018-09-05T13:41:31.055Z,6.55
2018-09-05T13:43:59.985Z,5.35
2018-09-05T13:46:28.911Z,6.75
2018-09-05T13:48:57.726Z,6.17
2018-09-05T13:51:26.523Z,6.35
2018-09-05T13:53:55.449Z,8.43
2018-09-05T13:56:24.081Z,6.00
2018-09-05T13:58:52.954Z,8.53
2018-09-05T14:01:21.698Z,6.37
2018-09-05T14:03:50.655Z,5.80
2018-09-05T14:06:19.242Z,5.70
2018-09-05T14:08:48.057Z,6.47
2018-09-05T14:11:17.205Z,7.03
2018-09-05T14:13:46.173Z,5.60
2018-09-05T14:16:15.120Z,6.15
2018-09-05T14:18:44.191Z,6.15
2018-09-05T14:21:12.852Z,5.67
2018-09-05T14:23:41.582Z,5.47
2018-09-05T14:26:10.392Z,5.30
2018-09-05T14:28:39.291Z,5.35
2018-09-05T14:31:08.236Z,7.40
2018-09-05T14:33:36.892Z,4.58
2018-09-05T14:36:05.666Z,4.62
2018-09-05T14:38:34.186Z,4.70
2018-09-05T14:41:02.783Z,6.28
2018-09-05T14:43:31.648Z,5.10
2018-09-05T14:46:00.272Z,6.97
2018-09-05T14:48:28.880Z,4.22
2018-09-05T14:50:57.700Z,5.33
2018-09-05T14:53:27.068Z,7.40
2018-09-05T14:55:56.131Z,4.58
2018-09-05T14:58:25.010Z,4.60
2018-09-05T15:00:53.537Z,6.03
2018-09-05T15:03:22.214Z,4.55
2018-09-05T15:05:51.097Z,5.08
2018-09-05T15:08:19.784Z,7.00
2018-09-05T15:10:48.872Z,4.05
2018-09-05T15:13:17.801Z,4.78
2018-09-05T15:15:46.591Z,5.33
2018-09-05T15:18:15.335Z,4.80
2018-09-05T15:20:44.421Z,4.65
2018-09-05T15:23:13.649Z,5.83
2018-09-05T15:25:42.597Z,5.10
2018-09-05T15:28:11.237Z,5.50
2018-09-05T15:30:40.362Z,5.00
2018-09-05T15:33:09.570Z,7.20
2018-09-05T15:35:38.403Z,5.90
2018-09-05T15:38:07.157Z,9.03
2018-09-05T15:40:35.978Z,5.83
2018-09-05T15:43:04.720Z,6.65
2018-09-05T15:45:33.468Z,4.67
2018-09-05T15:48:02.694Z,5.30
2018-09-05T15:50:31.876Z,5.05
2018-09-05T15:53:00.729Z,4.72
2018-09-05T15:55:29.506Z,7.22
2018-09-05T15:57:58.481Z,5.60
2018-09-05T16:00:27.328Z,5.45
2018-09-05T16:02:56.342Z,6.17
2018-09-05T16:05:25.364Z,7.65
2018-09-05T16:07:54.189Z,5.28
2018-09-05T16:10:23.326Z,6.15
2018-09-05T16:12:52.408Z,6.33
2018-09-05T16:15:22.209Z,6.58
2018-09-05T16:17:51.014Z,7.12
2018-09-05T16:20:19.995Z,5.72
2018-09-05T16:22:48.976Z,6.47
2018-09-05T16:25:18.308Z,6.70
2018-09-05T16:27:47.072Z,5.97
2018-09-05T16:30:15.719Z,7.10
2018-09-05T16:32:45.020Z,6.10
2018-09-05T16:35:13.813Z,6.37
2018-09-05T16:37:42.722Z,6.53
2018-09-05T16:40:11.550Z,5.95
2018-09-05T16:42:40.255Z,6.30
2018-09-05T16:45:08.927Z,6.70
2018-09-05T16:47:37.557Z,7.15
2018-09-05T16:50:06.258Z,5.60
2018-09-05T16:52:34.994Z,7.45
2018-09-05T16:55:03.734Z,7.08
2018-09-05T16:57:32.424Z,7.80
2018-09-05T17:00:01.093Z,7.00
2018-09-05T17:02:30.037Z,6.10
2018-09-05T17:04:58.988Z,6.45
2018-09-05T17:07:27.782Z,8.45
2018-09-05T17:09:56.677Z,6.75
2018-09-05T17:12:25.237Z,6.72
2018-09-05T17:14:53.871Z,8.55
2018-09-05T17:17:22.490Z,7.97
2018-09-05T17:19:51.439Z,5.62
2018-09-05T17:22:20.565Z,6.03
2018-09-05T17:24:49.670Z,8.38
2018-09-05T17:27:18.611Z,5.70
2018-09-05T17:29:48.573Z,7.45
2018-09-05T17:32:17.097Z,7.37
2018-09-05T17:34:45.843Z,7.12
2018-09-05T17:37:14.440Z,7.10
2018-09-05T17:39:43.006Z,11.43
2018-09-05T17:42:11.802Z,9.75
2018-09-05T17:44:40.788Z,6.37
2018-09-05T17:47:09.940Z,6.35
2018-09-05T17:58:10.863Z,10.48
2018-09-05T18:00:41.004Z,9.78
2018-09-05T18:03:09.701Z,7.15
2018-09-05T18:05:38.627Z,9.78
2018-09-05T18:08:19.072Z,7.67
2018-09-05T18:16:29.194Z,6.33
2018-09-05T18:18:58.504Z,7.17
2018-09-05T18:21:27.565Z,7.20
2018-09-05T18:23:56.793Z,8.13
2018-09-05T18:26:25.918Z,10.67
2018-09-05T18:28:55.042Z,7.57
2018-09-05T18:31:23.987Z,7.87
2018-09-05T18:33:53.068Z,7.80
2018-09-05T18:36:22.038Z,7.57
2018-09-05T18:38:51.037Z,5.93
2018-09-05T18:41:20.279Z,9.47
2018-09-05T18:43:49.482Z,8.53
2018-09-05T18:46:18.461Z,8.10
2018-09-05T18:48:47.701Z,8.73
2018-09-05T18:51:17.099Z,7.33
2018-09-05T18:53:46.461Z,8.63
2018-09-05T18:56:15.330Z,7.53
2018-09-05T18:58:44.654Z,7.33
2018-09-05T19:01:13.398Z,13.13
2018-09-05T19:03:42.323Z,11.70
2018-09-05T19:06:10.963Z,7.20
2018-09-05T19:08:40.123Z,8.70
2018-09-05T19:11:08.835Z,9.80
2018-09-05T19:13:37.461Z,10.03
2018-09-05T19:16:06.378Z,9.47
2018-09-05T19:18:35.303Z,8.37
2018-09-05T19:21:04.373Z,11.63
2018-09-05T19:23:33.888Z,8.23
2018-09-05T19:26:03.324Z,8.77
2018-09-05T19:28:32.255Z,11.77
2018-09-05T19:31:01.129Z,8.77
2018-09-05T19:33:30.026Z,11.67
2018-09-05T19:35:59.108Z,8.60
2018-09-05T19:38:28.258Z,7.67
2018-09-05T19:40:57.629Z,7.87
2018-09-05T19:43:26.708Z,8.50
2018-09-05T19:45:55.962Z,8.23
2018-09-05T19:48:25.062Z,7.53
2018-09-05T19:50:54.270Z,9.50
2018-09-05T19:53:23.061Z,10.67
2018-09-05T19:55:51.958Z,9.03
2018-09-05T19:58:21.038Z,16.73
2018-09-05T20:00:49.838Z,13.00
2018-09-05T20:03:18.826Z,10.77
2018-09-05T20:05:48.068Z,9.40
2018-09-05T20:08:17.098Z,9.27
2018-09-05T20:10:45.958Z,8.27
2018-09-05T20:13:14.948Z,9.27
2018-09-05T20:15:43.831Z,9.77
2018-09-05T20:18:13.154Z,8.70
2018-09-05T20:20:41.999Z,9.90
2018-09-05T20:23:11.044Z,9.13
2018-09-05T20:25:40.088Z,10.83
2018-09-05T20:28:08.888Z,8.93
2018-09-05T20:30:37.619Z,9.27
2018-09-05T20:33:06.332Z,11.87
2018-09-05T20:35:35.191Z,9.23
2018-09-05T20:38:04.010Z,10.20
2018-09-05T20:40:33.159Z,9.70
2018-09-05T20:43:01.852Z,10.30
2018-09-05T20:45:30.664Z,10.70
2018-09-05T20:47:59.274Z,8.77
2018-09-05T20:50:28.093Z,8.70
2018-09-05T20:52:57.206Z,8.27
2018-09-05T20:55:26.297Z,11.37
2018-09-05T20:57:55.410Z,9.50
2018-09-05T21:00:24.411Z,8.60
2018-09-05T21:02:53.030Z,8.83
2018-09-05T21:05:21.669Z,10.80
2018-09-05T21:07:50.671Z,11.03
2018-09-05T21:10:19.547Z,9.93
2018-09-05T21:12:48.233Z,13.17
2018-09-05T21:15:16.843Z,9.50
2018-09-05T21:17:45.654Z,12.97
2018-09-05T21:20:14.688Z,9.50
2018-09-05T21:22:43.623Z,9.07
2018-09-05T21:25:12.602Z,9.17
2018-09-05T21:27:41.424Z,10.00
2018-09-05T21:30:10.334Z,8.60
2018-09-05T21:32:39.188Z,9.00
2018-09-05T21:35:07.832Z,11.63
2018-09-05T21:37:36.506Z,9.57
2018-09-05T21:40:05.435Z,13.10
2018-09-05T21:42:34.104Z,11.97
2018-09-05T21:45:02.923Z,10.63
2018-09-05T21:47:31.781Z,9.27
2018-09-05T21:50:00.317Z,9.07
2018-09-05T21:52:29.213Z,12.07
2018-09-05T21:54:58.746Z,11.80
2018-09-05T21:57:27.539Z,9.77
2018-09-05T21:59:56.470Z,14.70
2018-09-05T22:02:25.018Z,11.37
2018-09-05T22:04:53.579Z,10.63
2018-09-05T22:07:22.421Z,10.90
2018-09-05T22:09:51.167Z,9.70
2018-09-05T22:12:20.021Z,9.13
2018-09-05T22:14:48.807Z,11.60
2018-09-05T22:17:17.646Z,10.67
2018-09-05T22:19:46.452Z,13.27
2018-09-05T22:22:15.208Z,9.77
2018-09-05T22:24:44.127Z,9.23
2018-09-05T22:27:13.053Z,11.23
2018-09-05T22:29:42.105Z,10.20
2018-09-05T22:32:10.848Z,10.10
2018-09-05T22:34:39.763Z,8.40
2018-09-05T22:37:08.343Z,13.40
2018-09-05T22:39:37.070Z,9.90
2018-09-05T22:42:05.805Z,10.07
2018-09-05T22:44:45.682Z,12.20
2018-09-05T22:47:25.747Z,10.57
2018-09-05T22:50:30.633Z,11.50
2018-09-05T22:53:23.871Z,9.60
2018-09-05T22:56:24.411Z,9.57
2018-09-05T22:59:01.399Z,11.87
2018-09-05T23:03:43.563Z,14.57
2018-09-05T23:06:32.116Z,10.13
2018-09-05T23:09:00.859Z,10.47
2018-09-05T23:12:05.726Z,12.17
2018-09-05T23:14:45.780Z,14.27
2018-09-05T23:17:25.456Z,12.57
2018-09-05T23:20:05.434Z,10.43
2018-09-05T23:22:45.324Z,9.60
2018-09-05T23:25:14.035Z,12.60
2018-09-05T23:27:42.600Z,8.97
2018-09-05T23:30:11.274Z,9.67
2018-09-05T23:32:39.989Z,12.87
2018-09-05T23:35:08.746Z,11.73
2018-09-05T23:37:37.293Z,10.87
2018-09-05T23:40:05.950Z,10.83
2018-09-05T23:42:34.871Z,11.53
2018-09-05T23:45:03.421Z,11.33
2018-09-05T23:47:32.097Z,9.90
2018-09-05T23:50:00.947Z,11.13
2018-09-05T23:52:29.744Z,12.30
2018-09-05T23:54:58.413Z,11.73
2018-09-05T23:57:26.984Z,11.87
2018-09-05T23:59:55.509Z,9.17
